Skip Navigation LinksHome page > Weather > Current weather Skip Navigation Links

Current Weather

Bom Jesus Da Lapa, Brazil

For information only: do not use for flight planning or navigation.
Latest weather
Observation time Tuesday, May 3, 2016 11:00 AM BRT
Local time Tuesday, May 3, 2016 1:16 PM BRT
Flight conditions Visual Meteorological Conditions
Winds
Wind direction South-Southwest (200°)
Wind speed 8 mph
Visibility 6.2 mi.
Sky condition
Ceiling unlimited
Sky clear
Temperature 91°F
Dewpoint 63°F
Altimeter 30.06 in.Hg
Derived measurements
Relative humidity 39%
Heat index 91°F
Density altitude 3602 ft.
Remarks
Ceiling and visibility OK.
METAR SBLP 031400Z 20007KT CAVOK 33/17 Q1018

Settings

Location code

InnerDrive.Weather 4.0.5722.1 Release CLR 4.0.30319.34209
Copyright ©2015 Inner Drive Technology. All rights reserved. Portions Copyright ©1986-2015 David Braverman.

Find weather

Site navigation


Skip Navigation Links

Place info

Page info

PayPal - The safer, easier way to pay online!

Return home.

Copyright ©2016 Inner Drive Technology. Purveyors of fine, hand-crafted computer software. Page printed 2016-05-03T16:16:49 UTC.